sensor_id;sensor_type;location;lat;lon;timestamp;P1;durP1;ratioP1;P2;durP2;ratioP2
41323;SDS011;27073;51.128;4.220;2022-12-29T00:02:17;2.38;;;1.33;;
41323;SDS011;27073;51.128;4.220;2022-12-29T00:04:42;2.05;;;1.30;;
41323;SDS011;27073;51.128;4.220;2022-12-29T00:07:08;2.38;;;1.25;;
41323;SDS011;27073;51.128;4.220;2022-12-29T00:09:34;2.05;;;1.30;;
41323;SDS011;27073;51.128;4.220;2022-12-29T00:12:00;2.95;;;1.20;;
41323;SDS011;27073;51.128;4.220;2022-12-29T00:14:27;2.42;;;1.35;;
41323;SDS011;27073;51.128;4.220;2022-12-29T00:17:11;2.42;;;1.13;;
41323;SDS011;27073;51.128;4.220;2022-12-29T00:19:37;3.13;;;1.10;;
41323;SDS011;27073;51.128;4.220;2022-12-29T00:22:22;2.25;;;1.20;;
41323;SDS011;27073;51.128;4.220;2022-12-29T00:25:07;2.90;;;0.88;;
41323;SDS011;27073;51.128;4.220;2022-12-29T00:27:53;1.92;;;0.85;;
41323;SDS011;27073;51.128;4.220;2022-12-29T00:30:38;2.53;;;0.90;;
41323;SDS011;27073;51.128;4.220;2022-12-29T00:33:25;3.42;;;0.70;;
41323;SDS011;27073;51.128;4.220;2022-12-29T00:36:23;1.40;;;0.50;;
41323;SDS011;27073;51.128;4.220;2022-12-29T00:39:08;3.20;;;0.90;;
41323;SDS011;27073;51.128;4.220;2022-12-29T00:41:55;1.98;;;0.63;;
41323;SDS011;27073;51.128;4.220;2022-12-29T00:44:40;1.65;;;0.98;;
41323;SDS011;27073;51.128;4.220;2022-12-29T00:47:08;1.83;;;0.60;;
41323;SDS011;27073;51.128;4.220;2022-12-29T00:49:34;2.90;;;0.88;;
41323;SDS011;27073;51.128;4.220;2022-12-29T00:54:30;1.42;;;0.65;;
41323;SDS011;27073;51.128;4.220;2022-12-29T00:56:58;3.70;;;0.50;;
41323;SDS011;27073;51.128;4.220;2022-12-29T00:59:23;3.25;;;0.68;;
41323;SDS011;27073;51.128;4.220;2022-12-29T01:01:50;3.47;;;0.70;;
41323;SDS011;27073;51.128;4.220;2022-12-29T01:04:18;2.28;;;0.70;;
41323;SDS011;27073;51.128;4.220;2022-12-29T01:06:48;2.58;;;0.70;;
41323;SDS011;27073;51.128;4.220;2022-12-29T01:09:15;5.45;;;1.00;;
41323;SDS011;27073;51.128;4.220;2022-12-29T01:12:00;4.32;;;1.00;;
41323;SDS011;27073;51.128;4.220;2022-12-29T01:14:26;2.17;;;0.57;;
41323;SDS011;27073;51.128;4.220;2022-12-29T01:16:52;4.10;;;0.82;;
41323;SDS011;27073;51.128;4.220;2022-12-29T01:19:19;1.92;;;0.88;;
41323;SDS011;27073;51.128;4.220;2022-12-29T01:21:45;2.92;;;0.50;;
41323;SDS011;27073;51.128;4.220;2022-12-29T01:24:11;2.10;;;0.60;;
41323;SDS011;27073;51.128;4.220;2022-12-29T01:26:38;3.88;;;1.48;;
41323;SDS011;27073;51.128;4.220;2022-12-29T01:29:04;3.22;;;0.90;;
41323;SDS011;27073;51.128;4.220;2022-12-29T01:31:30;4.55;;;1.15;;
41323;SDS011;27073;51.128;4.220;2022-12-29T01:33:56;2.30;;;0.50;;
41323;SDS011;27073;51.128;4.220;2022-12-29T01:36:21;4.00;;;0.60;;
41323;SDS011;27073;51.128;4.220;2022-12-29T01:38:47;5.07;;;1.05;;
41323;SDS011;27073;51.128;4.220;2022-12-29T01:41:14;2.97;;;0.80;;
41323;SDS011;27073;51.128;4.220;2022-12-29T01:49:15;3.75;;;0.50;;
41323;SDS011;27073;51.128;4.220;2022-12-29T01:51:55;3.42;;;1.00;;
41323;SDS011;27073;51.128;4.220;2022-12-29T01:54:26;3.95;;;1.40;;
41323;SDS011;27073;51.128;4.220;2022-12-29T01:56:56;5.72;;;1.00;;
41323;SDS011;27073;51.128;4.220;2022-12-29T01:59:26;2.58;;;0.65;;
41323;SDS011;27073;51.128;4.220;2022-12-29T02:01:55;2.83;;;0.57;;
41323;SDS011;27073;51.128;4.220;2022-12-29T02:04:22;4.47;;;0.85;;
41323;SDS011;27073;51.128;4.220;2022-12-29T02:06:51;4.03;;;0.85;;
41323;SDS011;27073;51.128;4.220;2022-12-29T02:09:21;4.07;;;1.67;;
41323;SDS011;27073;51.128;4.220;2022-12-29T02:11:49;3.83;;;0.80;;
41323;SDS011;27073;51.128;4.220;2022-12-29T02:14:16;3.38;;;1.00;;
41323;SDS011;27073;51.128;4.220;2022-12-29T02:30:50;2.47;;;0.70;;
41323;SDS011;27073;51.128;4.220;2022-12-29T02:36:14;4.07;;;0.88;;
41323;SDS011;27073;51.128;4.220;2022-12-29T02:39:15;4.10;;;0.80;;
41323;SDS011;27073;51.128;4.220;2022-12-29T02:47:18;6.30;;;0.77;;
41323;SDS011;27073;51.128;4.220;2022-12-29T02:49:51;4.80;;;0.70;;
41323;SDS011;27073;51.128;4.220;2022-12-29T02:52:27;4.15;;;0.65;;
41323;SDS011;27073;51.128;4.220;2022-12-29T02:55:18;3.72;;;0.80;;
41323;SDS011;27073;51.128;4.220;2022-12-29T02:57:43;5.07;;;0.95;;
41323;SDS011;27073;51.128;4.220;2022-12-29T03:00:12;4.35;;;0.70;;
41323;SDS011;27073;51.128;4.220;2022-12-29T03:08:55;4.55;;;0.47;;
41323;SDS011;27073;51.128;4.220;2022-12-29T03:11:13;2.75;;;0.32;;
41323;SDS011;27073;51.128;4.220;2022-12-29T03:19:41;6.80;;;1.50;;
41323;SDS011;27073;51.128;4.220;2022-12-29T03:22:12;7.95;;;1.00;;
41323;SDS011;27073;51.128;4.220;2022-12-29T03:27:31;4.22;;;0.82;;
41323;SDS011;27073;51.128;4.220;2022-12-29T03:30:01;3.53;;;0.90;;
41323;SDS011;27073;51.128;4.220;2022-12-29T03:32:38;6.50;;;1.45;;
41323;SDS011;27073;51.128;4.220;2022-12-29T03:35:11;5.68;;;0.77;;
41323;SDS011;27073;51.128;4.220;2022-12-29T03:37:41;5.13;;;0.93;;
41323;SDS011;27073;51.128;4.220;2022-12-29T03:40:13;2.17;;;0.65;;
41323;SDS011;27073;51.128;4.220;2022-12-29T03:42:39;4.90;;;0.80;;
41323;SDS011;27073;51.128;4.220;2022-12-29T03:45:07;7.22;;;1.30;;
41323;SDS011;27073;51.128;4.220;2022-12-29T03:47:35;5.28;;;1.02;;
41323;SDS011;27073;51.128;4.220;2022-12-29T03:50:01;4.38;;;0.93;;
41323;SDS011;27073;51.128;4.220;2022-12-29T03:52:29;4.18;;;0.85;;
41323;SDS011;27073;51.128;4.220;2022-12-29T03:54:55;9.05;;;2.10;;
41323;SDS011;27073;51.128;4.220;2022-12-29T03:57:20;6.50;;;0.90;;
41323;SDS011;27073;51.128;4.220;2022-12-29T03:59:56;5.47;;;1.33;;
41323;SDS011;27073;51.128;4.220;2022-12-29T04:02:22;3.75;;;0.68;;
41323;SDS011;27073;51.128;4.220;2022-12-29T04:04:49;8.15;;;1.00;;
41323;SDS011;27073;51.128;4.220;2022-12-29T04:07:14;5.18;;;1.17;;
41323;SDS011;27073;51.128;4.220;2022-12-29T04:09:41;7.15;;;1.17;;
41323;SDS011;27073;51.128;4.220;2022-12-29T04:12:10;6.25;;;1.38;;
41323;SDS011;27073;51.128;4.220;2022-12-29T04:14:36;7.72;;;1.30;;
41323;SDS011;27073;51.128;4.220;2022-12-29T04:17:01;4.75;;;1.13;;
41323;SDS011;27073;51.128;4.220;2022-12-29T04:19:28;7.53;;;1.15;;
41323;SDS011;27073;51.128;4.220;2022-12-29T04:21:54;7.05;;;1.25;;
41323;SDS011;27073;51.128;4.220;2022-12-29T04:24:20;8.77;;;2.10;;
41323;SDS011;27073;51.128;4.220;2022-12-29T04:26:48;5.72;;;0.80;;
41323;SDS011;27073;51.128;4.220;2022-12-29T04:29:28;7.18;;;1.20;;
41323;SDS011;27073;51.128;4.220;2022-12-29T04:32:14;6.93;;;1.02;;
41323;SDS011;27073;51.128;4.220;2022-12-29T04:34:44;8.65;;;1.38;;
41323;SDS011;27073;51.128;4.220;2022-12-29T04:37:10;12.13;;;2.03;;
41323;SDS011;27073;51.128;4.220;2022-12-29T04:39:36;7.03;;;1.35;;
41323;SDS011;27073;51.128;4.220;2022-12-29T04:42:03;6.47;;;1.05;;
41323;SDS011;27073;51.128;4.220;2022-12-29T04:44:28;6.10;;;1.27;;
41323;SDS011;27073;51.128;4.220;2022-12-29T04:47:08;3.22;;;0.85;;
41323;SDS011;27073;51.128;4.220;2022-12-29T04:49:53;5.28;;;1.00;;
41323;SDS011;27073;51.128;4.220;2022-12-29T04:52:31;8.13;;;2.03;;
41323;SDS011;27073;51.128;4.220;2022-12-29T04:54:57;4.78;;;0.98;;
41323;SDS011;27073;51.128;4.220;2022-12-29T04:57:23;6.22;;;1.27;;
41323;SDS011;27073;51.128;4.220;2022-12-29T04:59:53;7.53;;;0.82;;
41323;SDS011;27073;51.128;4.220;2022-12-29T05:02:21;8.32;;;1.98;;
41323;SDS011;27073;51.128;4.220;2022-12-29T05:04:48;7.50;;;1.40;;
41323;SDS011;27073;51.128;4.220;2022-12-29T05:07:15;5.13;;;1.02;;
41323;SDS011;27073;51.128;4.220;2022-12-29T05:09:42;5.60;;;0.93;;
41323;SDS011;27073;51.128;4.220;2022-12-29T05:12:09;6.80;;;1.75;;
41323;SDS011;27073;51.128;4.220;2022-12-29T05:14:41;6.40;;;1.00;;
41323;SDS011;27073;51.128;4.220;2022-12-29T05:17:07;8.15;;;1.52;;
41323;SDS011;27073;51.128;4.220;2022-12-29T05:19:32;3.97;;;0.75;;
41323;SDS011;27073;51.128;4.220;2022-12-29T05:21:58;7.13;;;1.58;;
41323;SDS011;27073;51.128;4.220;2022-12-29T05:24:24;3.65;;;0.80;;
41323;SDS011;27073;51.128;4.220;2022-12-29T05:26:55;6.40;;;1.35;;
41323;SDS011;27073;51.128;4.220;2022-12-29T05:29:36;6.75;;;1.40;;
41323;SDS011;27073;51.128;4.220;2022-12-29T05:32:01;8.30;;;1.23;;
41323;SDS011;27073;51.128;4.220;2022-12-29T05:34:28;8.50;;;1.70;;
41323;SDS011;27073;51.128;4.220;2022-12-29T05:36:53;2.95;;;0.77;;
41323;SDS011;27073;51.128;4.220;2022-12-29T05:39:19;2.78;;;0.60;;
41323;SDS011;27073;51.128;4.220;2022-12-29T05:41:51;6.60;;;1.30;;
41323;SDS011;27073;51.128;4.220;2022-12-29T05:44:35;7.22;;;2.17;;
41323;SDS011;27073;51.128;4.220;2022-12-29T05:47:13;4.90;;;0.60;;
41323;SDS011;27073;51.128;4.220;2022-12-29T05:49:51;6.57;;;1.58;;
41323;SDS011;27073;51.128;4.220;2022-12-29T05:52:26;4.45;;;0.95;;
41323;SDS011;27073;51.128;4.220;2022-12-29T05:54:52;3.90;;;1.02;;
41323;SDS011;27073;51.128;4.220;2022-12-29T05:57:20;8.57;;;1.63;;
41323;SDS011;27073;51.128;4.220;2022-12-29T05:59:55;5.45;;;1.40;;
41323;SDS011;27073;51.128;4.220;2022-12-29T06:02:21;7.70;;;1.33;;
41323;SDS011;27073;51.128;4.220;2022-12-29T06:04:46;8.25;;;1.17;;
41323;SDS011;27073;51.128;4.220;2022-12-29T06:07:12;5.80;;;1.23;;
41323;SDS011;27073;51.128;4.220;2022-12-29T06:09:41;4.82;;;0.70;;
41323;SDS011;27073;51.128;4.220;2022-12-29T06:12:08;6.25;;;1.65;;
41323;SDS011;27073;51.128;4.220;2022-12-29T06:14:34;6.10;;;1.10;;
41323;SDS011;27073;51.128;4.220;2022-12-29T06:17:01;7.13;;;1.02;;
41323;SDS011;27073;51.128;4.220;2022-12-29T06:19:27;5.53;;;1.60;;
41323;SDS011;27073;51.128;4.220;2022-12-29T06:21:53;7.28;;;1.10;;
41323;SDS011;27073;51.128;4.220;2022-12-29T06:24:20;7.95;;;1.95;;
41323;SDS011;27073;51.128;4.220;2022-12-29T06:26:46;8.55;;;1.77;;
41323;SDS011;27073;51.128;4.220;2022-12-29T06:29:12;7.13;;;1.20;;
41323;SDS011;27073;51.128;4.220;2022-12-29T06:31:42;9.30;;;1.93;;
41323;SDS011;27073;51.128;4.220;2022-12-29T06:34:08;7.35;;;1.63;;
41323;SDS011;27073;51.128;4.220;2022-12-29T06:36:35;6.05;;;1.35;;
41323;SDS011;27073;51.128;4.220;2022-12-29T06:39:01;8.73;;;1.25;;
41323;SDS011;27073;51.128;4.220;2022-12-29T06:41:26;9.38;;;1.48;;
41323;SDS011;27073;51.128;4.220;2022-12-29T06:44:07;10.50;;;1.88;;
41323;SDS011;27073;51.128;4.220;2022-12-29T06:46:48;6.95;;;0.95;;
41323;SDS011;27073;51.128;4.220;2022-12-29T06:49:14;10.35;;;2.17;;
41323;SDS011;27073;51.128;4.220;2022-12-29T06:51:40;6.78;;;1.50;;
41323;SDS011;27073;51.128;4.220;2022-12-29T06:54:06;6.30;;;1.33;;
41323;SDS011;27073;51.128;4.220;2022-12-29T06:56:31;7.35;;;1.52;;
41323;SDS011;27073;51.128;4.220;2022-12-29T06:58:57;8.65;;;1.48;;
41323;SDS011;27073;51.128;4.220;2022-12-29T07:01:25;8.40;;;2.25;;
41323;SDS011;27073;51.128;4.220;2022-12-29T07:03:51;6.80;;;2.20;;
41323;SDS011;27073;51.128;4.220;2022-12-29T07:06:16;13.60;;;2.10;;
41323;SDS011;27073;51.128;4.220;2022-12-29T07:08:42;9.50;;;1.90;;
41323;SDS011;27073;51.128;4.220;2022-12-29T07:11:08;12.63;;;1.95;;
41323;SDS011;27073;51.128;4.220;2022-12-29T07:13:34;10.68;;;2.00;;
41323;SDS011;27073;51.128;4.220;2022-12-29T07:16:04;8.05;;;1.48;;
41323;SDS011;27073;51.128;4.220;2022-12-29T07:18:31;10.50;;;2.33;;
41323;SDS011;27073;51.128;4.220;2022-12-29T07:20:57;12.75;;;2.90;;
41323;SDS011;27073;51.128;4.220;2022-12-29T07:23:23;9.68;;;2.33;;
41323;SDS011;27073;51.128;4.220;2022-12-29T07:25:48;6.60;;;1.67;;
41323;SDS011;27073;51.128;4.220;2022-12-29T07:28:14;9.40;;;1.75;;
41323;SDS011;27073;51.128;4.220;2022-12-29T07:30:40;10.32;;;2.38;;
41323;SDS011;27073;51.128;4.220;2022-12-29T07:33:06;11.23;;;1.90;;
41323;SDS011;27073;51.128;4.220;2022-12-29T07:35:33;8.20;;;2.20;;
41323;SDS011;27073;51.128;4.220;2022-12-29T07:37:59;13.60;;;2.67;;
41323;SDS011;27073;51.128;4.220;2022-12-29T07:40:24;7.47;;;1.52;;
41323;SDS011;27073;51.128;4.220;2022-12-29T07:42:50;14.70;;;3.05;;
41323;SDS011;27073;51.128;4.220;2022-12-29T07:45:24;10.38;;;1.65;;
41323;SDS011;27073;51.128;4.220;2022-12-29T07:48:02;8.43;;;1.98;;
41323;SDS011;27073;51.128;4.220;2022-12-29T07:50:28;17.23;;;2.45;;
41323;SDS011;27073;51.128;4.220;2022-12-29T07:52:54;7.82;;;1.98;;
41323;SDS011;27073;51.128;4.220;2022-12-29T07:55:19;7.00;;;1.75;;
41323;SDS011;27073;51.128;4.220;2022-12-29T07:57:45;5.30;;;1.30;;
41323;SDS011;27073;51.128;4.220;2022-12-29T08:00:11;6.88;;;1.40;;
41323;SDS011;27073;51.128;4.220;2022-12-29T08:02:38;9.55;;;2.22;;
41323;SDS011;27073;51.128;4.220;2022-12-29T08:05:04;12.02;;;2.17;;
41323;SDS011;27073;51.128;4.220;2022-12-29T08:07:30;8.65;;;1.58;;
41323;SDS011;27073;51.128;4.220;2022-12-29T08:09:55;11.05;;;2.38;;
41323;SDS011;27073;51.128;4.220;2022-12-29T08:12:21;12.48;;;1.85;;
41323;SDS011;27073;51.128;4.220;2022-12-29T08:14:47;11.98;;;1.70;;
41323;SDS011;27073;51.128;4.220;2022-12-29T08:17:12;9.88;;;1.90;;
41323;SDS011;27073;51.128;4.220;2022-12-29T08:19:38;8.57;;;2.28;;
41323;SDS011;27073;51.128;4.220;2022-12-29T08:22:04;10.50;;;2.22;;
41323;SDS011;27073;51.128;4.220;2022-12-29T08:24:29;8.82;;;2.45;;
41323;SDS011;27073;51.128;4.220;2022-12-29T08:26:55;9.40;;;1.90;;
41323;SDS011;27073;51.128;4.220;2022-12-29T08:29:21;10.23;;;2.03;;
41323;SDS011;27073;51.128;4.220;2022-12-29T08:31:47;5.47;;;1.70;;
41323;SDS011;27073;51.128;4.220;2022-12-29T08:34:13;11.70;;;2.22;;
41323;SDS011;27073;51.128;4.220;2022-12-29T08:36:39;8.90;;;1.77;;
41323;SDS011;27073;51.128;4.220;2022-12-29T08:39:04;6.57;;;1.60;;
41323;SDS011;27073;51.128;4.220;2022-12-29T08:41:30;10.80;;;2.70;;
41323;SDS011;27073;51.128;4.220;2022-12-29T08:43:56;7.93;;;1.52;;
41323;SDS011;27073;51.128;4.220;2022-12-29T08:46:22;7.65;;;1.88;;
41323;SDS011;27073;51.128;4.220;2022-12-29T08:48:47;8.63;;;2.50;;
41323;SDS011;27073;51.128;4.220;2022-12-29T08:51:13;10.07;;;2.60;;
41323;SDS011;27073;51.128;4.220;2022-12-29T08:53:39;12.57;;;2.20;;
41323;SDS011;27073;51.128;4.220;2022-12-29T08:56:05;12.13;;;1.95;;
41323;SDS011;27073;51.128;4.220;2022-12-29T08:58:41;11.05;;;2.10;;
41323;SDS011;27073;51.128;4.220;2022-12-29T09:01:07;8.88;;;2.17;;
41323;SDS011;27073;51.128;4.220;2022-12-29T09:03:34;10.40;;;1.73;;
41323;SDS011;27073;51.128;4.220;2022-12-29T09:06:00;8.07;;;1.90;;
41323;SDS011;27073;51.128;4.220;2022-12-29T09:08:25;7.80;;;1.70;;
41323;SDS011;27073;51.128;4.220;2022-12-29T09:10:51;14.30;;;2.33;;
41323;SDS011;27073;51.128;4.220;2022-12-29T09:13:18;11.20;;;2.58;;
41323;SDS011;27073;51.128;4.220;2022-12-29T09:15:44;7.90;;;2.13;;
41323;SDS011;27073;51.128;4.220;2022-12-29T09:18:10;10.55;;;2.00;;
41323;SDS011;27073;51.128;4.220;2022-12-29T09:20:36;9.07;;;2.30;;
41323;SDS011;27073;51.128;4.220;2022-12-29T09:23:02;9.25;;;1.83;;
41323;SDS011;27073;51.128;4.220;2022-12-29T09:25:29;5.13;;;1.83;;
41323;SDS011;27073;51.128;4.220;2022-12-29T09:27:55;12.18;;;2.13;;
41323;SDS011;27073;51.128;4.220;2022-12-29T09:30:21;12.45;;;3.13;;
41323;SDS011;27073;51.128;4.220;2022-12-29T09:32:48;11.68;;;2.47;;
41323;SDS011;27073;51.128;4.220;2022-12-29T09:35:14;10.35;;;2.53;;
41323;SDS011;27073;51.128;4.220;2022-12-29T09:37:40;11.07;;;3.28;;
41323;SDS011;27073;51.128;4.220;2022-12-29T09:40:07;9.52;;;1.70;;
41323;SDS011;27073;51.128;4.220;2022-12-29T09:42:43;9.73;;;2.33;;
41323;SDS011;27073;51.128;4.220;2022-12-29T09:45:42;14.15;;;2.72;;
41323;SDS011;27073;51.128;4.220;2022-12-29T09:48:23;14.25;;;2.75;;
41323;SDS011;27073;51.128;4.220;2022-12-29T09:50:57;7.47;;;1.83;;
41323;SDS011;27073;51.128;4.220;2022-12-29T09:53:28;16.77;;;2.70;;
41323;SDS011;27073;51.128;4.220;2022-12-29T09:56:02;14.15;;;2.38;;
41323;SDS011;27073;51.128;4.220;2022-12-29T09:58:33;10.88;;;2.15;;
41323;SDS011;27073;51.128;4.220;2022-12-29T10:01:05;9.93;;;2.20;;
41323;SDS011;27073;51.128;4.220;2022-12-29T10:03:40;13.77;;;2.55;;
41323;SDS011;27073;51.128;4.220;2022-12-29T10:25:19;14.68;;;3.05;;
41323;SDS011;27073;51.128;4.220;2022-12-29T10:27:48;15.27;;;3.75;;
41323;SDS011;27073;51.128;4.220;2022-12-29T10:30:15;14.60;;;2.58;;
41323;SDS011;27073;51.128;4.220;2022-12-29T10:33:01;18.38;;;2.92;;
41323;SDS011;27073;51.128;4.220;2022-12-29T10:35:33;17.70;;;2.65;;
41323;SDS011;27073;51.128;4.220;2022-12-29T10:45:59;16.33;;;2.92;;
41323;SDS011;27073;51.128;4.220;2022-12-29T10:48:31;10.70;;;2.13;;
41323;SDS011;27073;51.128;4.220;2022-12-29T10:50:59;17.42;;;2.55;;
41323;SDS011;27073;51.128;4.220;2022-12-29T10:56:13;15.40;;;2.70;;
41323;SDS011;27073;51.128;4.220;2022-12-29T11:01:30;14.48;;;3.33;;
41323;SDS011;27073;51.128;4.220;2022-12-29T11:04:02;16.90;;;3.13;;
41323;SDS011;27073;51.128;4.220;2022-12-29T11:06:49;10.00;;;2.13;;
41323;SDS011;27073;51.128;4.220;2022-12-29T11:09:16;13.13;;;2.10;;
41323;SDS011;27073;51.128;4.220;2022-12-29T11:11:49;10.85;;;2.80;;
41323;SDS011;27073;51.128;4.220;2022-12-29T11:14:17;11.32;;;2.45;;
41323;SDS011;27073;51.128;4.220;2022-12-29T11:16:44;11.00;;;3.03;;
41323;SDS011;27073;51.128;4.220;2022-12-29T11:19:23;10.50;;;2.38;;
41323;SDS011;27073;51.128;4.220;2022-12-29T11:21:51;16.95;;;2.97;;
41323;SDS011;27073;51.128;4.220;2022-12-29T11:26:50;7.80;;;1.58;;
41323;SDS011;27073;51.128;4.220;2022-12-29T11:31:54;8.82;;;2.13;;
41323;SDS011;27073;51.128;4.220;2022-12-29T11:34:27;9.02;;;2.25;;
41323;SDS011;27073;51.128;4.220;2022-12-29T11:37:03;6.82;;;1.70;;
41323;SDS011;27073;51.128;4.220;2022-12-29T11:42:11;9.75;;;1.90;;
41323;SDS011;27073;51.128;4.220;2022-12-29T11:44:43;8.13;;;2.38;;
41323;SDS011;27073;51.128;4.220;2022-12-29T11:47:34;12.15;;;1.85;;
41323;SDS011;27073;51.128;4.220;2022-12-29T11:50:04;10.63;;;3.03;;
41323;SDS011;27073;51.128;4.220;2022-12-29T11:52:32;7.03;;;2.20;;
41323;SDS011;27073;51.128;4.220;2022-12-29T11:55:02;8.47;;;1.57;;
41323;SDS011;27073;51.128;4.220;2022-12-29T11:57:31;12.80;;;2.35;;
41323;SDS011;27073;51.128;4.220;2022-12-29T12:00:00;11.43;;;2.58;;
41323;SDS011;27073;51.128;4.220;2022-12-29T12:07:47;9.50;;;2.22;;
41323;SDS011;27073;51.128;4.220;2022-12-29T12:10:31;10.80;;;2.25;;
41323;SDS011;27073;51.128;4.220;2022-12-29T12:18:47;10.82;;;1.60;;
41323;SDS011;27073;51.128;4.220;2022-12-29T12:21:41;10.70;;;2.65;;
41323;SDS011;27073;51.128;4.220;2022-12-29T12:26:59;12.90;;;2.28;;
41323;SDS011;27073;51.128;4.220;2022-12-29T12:32:15;9.00;;;1.90;;
41323;SDS011;27073;51.128;4.220;2022-12-29T12:34:47;11.82;;;2.60;;
41323;SDS011;27073;51.128;4.220;2022-12-29T12:45:09;14.85;;;2.22;;
41323;SDS011;27073;51.128;4.220;2022-12-29T12:58:59;8.75;;;2.28;;
41323;SDS011;27073;51.128;4.220;2022-12-29T13:04:45;12.50;;;1.88;;
41323;SDS011;27073;51.128;4.220;2022-12-29T13:20:52;6.25;;;1.42;;
41323;SDS011;27073;51.128;4.220;2022-12-29T13:23:33;7.47;;;1.50;;
41323;SDS011;27073;51.128;4.220;2022-12-29T13:26:24;7.78;;;1.85;;
41323;SDS011;27073;51.128;4.220;2022-12-29T13:29:12;7.97;;;1.30;;
41323;SDS011;27073;51.128;4.220;2022-12-29T13:32:13;10.55;;;1.65;;
41323;SDS011;27073;51.128;4.220;2022-12-29T13:37:15;8.98;;;1.92;;
41323;SDS011;27073;51.128;4.220;2022-12-29T13:40:04;9.65;;;1.35;;
41323;SDS011;27073;51.128;4.220;2022-12-29T13:42:39;5.57;;;0.70;;
41323;SDS011;27073;51.128;4.220;2022-12-29T13:45:10;11.45;;;1.70;;
41323;SDS011;27073;51.128;4.220;2022-12-29T13:47:52;6.13;;;1.58;;
41323;SDS011;27073;51.128;4.220;2022-12-29T13:50:26;7.65;;;1.30;;
41323;SDS011;27073;51.128;4.220;2022-12-29T13:56:04;4.68;;;1.23;;
41323;SDS011;27073;51.128;4.220;2022-12-29T14:04:09;5.00;;;0.80;;
41323;SDS011;27073;51.128;4.220;2022-12-29T14:06:37;4.55;;;1.00;;
41323;SDS011;27073;51.128;4.220;2022-12-29T14:09:06;9.52;;;1.33;;
41323;SDS011;27073;51.128;4.220;2022-12-29T14:11:55;6.47;;;1.33;;
41323;SDS011;27073;51.128;4.220;2022-12-29T14:16:48;4.60;;;1.08;;
41323;SDS011;27073;51.128;4.220;2022-12-29T14:19:15;8.45;;;1.38;;
41323;SDS011;27073;51.128;4.220;2022-12-29T14:22:09;5.85;;;1.50;;
41323;SDS011;27073;51.128;4.220;2022-12-29T14:34:49;8.82;;;1.70;;
41323;SDS011;27073;51.128;4.220;2022-12-29T14:37:26;6.72;;;1.55;;
41323;SDS011;27073;51.128;4.220;2022-12-29T14:42:40;3.58;;;1.05;;
41323;SDS011;27073;51.128;4.220;2022-12-29T14:52:53;4.82;;;1.30;;
41323;SDS011;27073;51.128;4.220;2022-12-29T14:56:09;4.13;;;0.93;;
41323;SDS011;27073;51.128;4.220;2022-12-29T14:58:31;4.47;;;1.45;;
41323;SDS011;27073;51.128;4.220;2022-12-29T15:01:01;3.83;;;0.98;;
41323;SDS011;27073;51.128;4.220;2022-12-29T15:03:43;3.97;;;1.40;;
41323;SDS011;27073;51.128;4.220;2022-12-29T15:06:11;5.35;;;1.40;;
41323;SDS011;27073;51.128;4.220;2022-12-29T15:11:23;6.30;;;1.17;;
41323;SDS011;27073;51.128;4.220;2022-12-29T15:13:55;6.03;;;1.90;;
41323;SDS011;27073;51.128;4.220;2022-12-29T15:16:22;7.63;;;1.92;;
41323;SDS011;27073;51.128;4.220;2022-12-29T15:18:50;6.78;;;1.33;;
41323;SDS011;27073;51.128;4.220;2022-12-29T15:21:16;7.18;;;2.20;;
41323;SDS011;27073;51.128;4.220;2022-12-29T15:23:44;9.25;;;1.85;;
41323;SDS011;27073;51.128;4.220;2022-12-29T15:26:10;9.32;;;2.05;;
41323;SDS011;27073;51.128;4.220;2022-12-29T15:31:14;5.68;;;1.90;;
41323;SDS011;27073;51.128;4.220;2022-12-29T15:33:46;7.03;;;1.63;;
41323;SDS011;27073;51.128;4.220;2022-12-29T15:36:24;10.00;;;2.08;;
41323;SDS011;27073;51.128;4.220;2022-12-29T15:38:52;11.32;;;3.17;;
41323;SDS011;27073;51.128;4.220;2022-12-29T15:43:59;8.48;;;2.17;;
41323;SDS011;27073;51.128;4.220;2022-12-29T15:46:27;11.20;;;2.13;;
41323;SDS011;27073;51.128;4.220;2022-12-29T15:48:56;11.55;;;1.95;;
41323;SDS011;27073;51.128;4.220;2022-12-29T15:51:25;11.93;;;2.72;;
41323;SDS011;27073;51.128;4.220;2022-12-29T15:53:58;8.07;;;2.13;;
41323;SDS011;27073;51.128;4.220;2022-12-29T15:56:24;11.23;;;2.15;;
41323;SDS011;27073;51.128;4.220;2022-12-29T15:58:53;9.05;;;3.03;;
41323;SDS011;27073;51.128;4.220;2022-12-29T16:03:54;8.63;;;1.38;;
41323;SDS011;27073;51.128;4.220;2022-12-29T16:09:06;8.70;;;1.55;;
41323;SDS011;27073;51.128;4.220;2022-12-29T16:11:40;10.32;;;1.88;;
41323;SDS011;27073;51.128;4.220;2022-12-29T16:14:20;10.57;;;2.00;;
41323;SDS011;27073;51.128;4.220;2022-12-29T16:16:52;10.20;;;2.50;;
41323;SDS011;27073;51.128;4.220;2022-12-29T16:19:26;8.73;;;1.73;;
41323;SDS011;27073;51.128;4.220;2022-12-29T16:21:54;8.02;;;2.08;;
41323;SDS011;27073;51.128;4.220;2022-12-29T16:24:23;9.15;;;1.80;;
41323;SDS011;27073;51.128;4.220;2022-12-29T16:26:59;10.73;;;2.40;;
41323;SDS011;27073;51.128;4.220;2022-12-29T16:29:32;21.67;;;3.50;;
41323;SDS011;27073;51.128;4.220;2022-12-29T16:31:59;12.57;;;2.55;;
41323;SDS011;27073;51.128;4.220;2022-12-29T16:34:31;13.20;;;2.67;;
41323;SDS011;27073;51.128;4.220;2022-12-29T16:37:02;10.00;;;2.25;;
41323;SDS011;27073;51.128;4.220;2022-12-29T16:39:30;12.50;;;2.20;;
41323;SDS011;27073;51.128;4.220;2022-12-29T16:41:58;10.68;;;2.28;;
41323;SDS011;27073;51.128;4.220;2022-12-29T16:44:26;13.27;;;2.45;;
41323;SDS011;27073;51.128;4.220;2022-12-29T16:47:06;15.32;;;3.92;;
41323;SDS011;27073;51.128;4.220;2022-12-29T16:49:47;10.48;;;1.83;;
41323;SDS011;27073;51.128;4.220;2022-12-29T16:52:20;11.55;;;2.97;;
41323;SDS011;27073;51.128;4.220;2022-12-29T16:54:52;11.65;;;3.20;;
41323;SDS011;27073;51.128;4.220;2022-12-29T16:57:21;10.27;;;2.78;;
41323;SDS011;27073;51.128;4.220;2022-12-29T16:59:50;11.30;;;2.67;;
41323;SDS011;27073;51.128;4.220;2022-12-29T17:02:19;13.18;;;3.20;;
41323;SDS011;27073;51.128;4.220;2022-12-29T17:04:47;15.13;;;2.92;;
41323;SDS011;27073;51.128;4.220;2022-12-29T17:07:15;10.80;;;3.42;;
41323;SDS011;27073;51.128;4.220;2022-12-29T17:09:42;11.98;;;2.92;;
41323;SDS011;27073;51.128;4.220;2022-12-29T17:12:08;15.85;;;3.47;;
41323;SDS011;27073;51.128;4.220;2022-12-29T17:14:47;18.17;;;3.85;;
41323;SDS011;27073;51.128;4.220;2022-12-29T17:17:18;12.73;;;4.15;;
41323;SDS011;27073;51.128;4.220;2022-12-29T17:19:46;14.35;;;3.97;;
41323;SDS011;27073;51.128;4.220;2022-12-29T17:22:19;20.48;;;5.07;;
41323;SDS011;27073;51.128;4.220;2022-12-29T17:24:50;13.35;;;3.67;;
41323;SDS011;27073;51.128;4.220;2022-12-29T17:27:19;11.38;;;3.25;;
41323;SDS011;27073;51.128;4.220;2022-12-29T17:29:50;10.20;;;4.00;;
41323;SDS011;27073;51.128;4.220;2022-12-29T17:32:19;17.05;;;2.97;;
41323;SDS011;27073;51.128;4.220;2022-12-29T17:34:45;21.55;;;3.55;;
41323;SDS011;27073;51.128;4.220;2022-12-29T17:39:49;16.85;;;2.97;;
41323;SDS011;27073;51.128;4.220;2022-12-29T17:42:15;15.55;;;3.42;;
41323;SDS011;27073;51.128;4.220;2022-12-29T17:44:42;14.95;;;3.28;;
41323;SDS011;27073;51.128;4.220;2022-12-29T17:47:09;18.05;;;3.85;;
41323;SDS011;27073;51.128;4.220;2022-12-29T17:49:35;13.32;;;2.70;;
41323;SDS011;27073;51.128;4.220;2022-12-29T17:52:01;13.35;;;3.33;;
41323;SDS011;27073;51.128;4.220;2022-12-29T17:54:28;12.05;;;3.53;;
41323;SDS011;27073;51.128;4.220;2022-12-29T17:56:55;13.50;;;3.13;;
41323;SDS011;27073;51.128;4.220;2022-12-29T17:59:21;11.73;;;2.83;;
41323;SDS011;27073;51.128;4.220;2022-12-29T18:01:47;15.52;;;3.63;;
41323;SDS011;27073;51.128;4.220;2022-12-29T18:04:14;15.07;;;2.55;;
41323;SDS011;27073;51.128;4.220;2022-12-29T18:06:42;14.20;;;3.08;;
41323;SDS011;27073;51.128;4.220;2022-12-29T18:09:08;13.38;;;3.83;;
41323;SDS011;27073;51.128;4.220;2022-12-29T18:11:35;14.63;;;3.33;;